Time;durP1;ratioP1;P1;durP2;ratioP2;P2;SDS_P1;SDS_P2;PMS_P1;PMS_P2;Temp;Humidity;BMP_temperature;BMP_pressure;BME280_temperature;BME280_humidity;BME280_pressure;Samples;Min_cycle;Max_cycle;Signal;HPM_P1;HPM_P2
2022/06/11 00:00:14;;;;;;;;;;;;;;;33.62;26.68;98656.78;5037476;28;19920;-78
2022/06/11 00:02:40;;;;;;;;;;;;;;;33.69;26.23;98648.66;5034776;28;19960;-78
2022/06/11 00:05:06;;;;;;;;;;;;;;;33.76;25.88;98644.66;5035417;28;19952;-78
2022/06/11 00:07:32;;;;;;;;;;;;;;;33.66;25.83;98648.84;5033795;28;19960;-78
2022/06/11 00:09:58;;;;;;;;;;;;;;;33.62;26.06;98646.19;5039325;28;19925;-78
2022/06/11 00:12:26;;;;;;;;;;;;;;;33.70;25.91;98649.47;5042334;28;19925;-78
2022/06/11 00:14:53;;;;;;;;;;;;;;;33.75;25.97;98652.41;5039967;28;20003;-78
2022/06/11 00:17:20;;;;;;;;;;;;;;;33.78;25.57;98644.94;5043706;28;19916;-78
2022/06/11 00:19:46;;;;;;;;;;;;;;;33.74;25.29;98650.06;5040895;28;19916;-78
2022/06/11 00:22:12;;;;;;;;;;;;;;;33.61;25.67;98644.59;5036632;28;19921;-78
2022/06/11 00:24:38;;;;;;;;;;;;;;;33.51;25.63;98640.25;5034621;28;19923;-78
2022/06/11 00:27:05;;;;;;;;;;;;;;;33.43;26.15;98645.50;5036744;28;19921;-78
2022/06/11 00:29:34;;;;;;;;;;;;;;;33.09;26.21;98640.34;5022728;28;19927;-77
2022/06/11 00:32:01;;;;;;;;;;;;;;;32.86;26.66;98643.91;5038947;28;19925;-79
2022/06/11 00:34:27;;;;;;;;;;;;;;;33.04;26.19;98649.53;5046555;28;20070;-79
2022/06/11 00:36:53;;;;;;;;;;;;;;;33.21;25.89;98653.53;5042050;28;19917;-80
2022/06/11 00:39:21;;;;;;;;;;;;;;;33.21;25.84;98653.53;5036897;28;19921;-80
2022/06/11 00:41:50;;;;;;;;;;;;;;;33.30;25.32;98652.72;5040928;28;19925;-80
2022/06/11 00:44:16;;;;;;;;;;;;;;;33.40;25.54;98652.16;5036429;28;20384;-79
2022/06/11 00:47:08;;;;;;;;;;;;;;;33.34;25.63;98659.81;5036739;28;19924;-80
2022/06/11 00:49:40;;;;;;;;;;;;;;;33.25;25.58;98659.88;5010042;28;19917;-79
2022/06/11 00:52:16;;;;;;;;;;;;;;;33.08;25.96;98658.69;5039525;28;19920;-80
2022/06/11 00:54:44;;;;;;;;;;;;;;;33.08;25.50;98669.28;5044027;28;19923;-80
2022/06/11 00:57:11;;;;;;;;;;;;;;;33.14;25.75;98667.38;5047505;28;20352;-80
2022/06/11 00:59:40;;;;;;;;;;;;;;;33.13;25.41;98669.41;5022638;28;20331;-80
2022/06/11 01:02:06;;;;;;;;;;;;;;;33.04;25.78;98660.13;5044176;28;19951;-80
2022/06/11 01:04:36;;;;;;;;;;;;;;;32.75;25.94;98657.84;5034177;28;20011;-80
2022/06/11 01:07:10;;;;;;;;;;;;;;;32.90;25.32;98655.13;5038486;28;20265;-80
2022/06/11 01:09:43;;;;;;;;;;;;;;;33.05;25.54;98661.72;5033901;28;19920;-80
2022/06/11 01:12:27;;;;;;;;;;;;;;;33.21;25.24;98661.31;5035735;28;19950;-80
2022/06/11 01:14:59;;;;;;;;;;;;;;;33.22;24.96;98654.34;5041382;28;19917;-80
2022/06/11 01:17:25;;;;;;;;;;;;;;;33.18;25.23;98657.38;5046208;28;19967;-80
2022/06/11 01:20:10;;;;;;;;;;;;;;;33.12;24.77;98659.28;5035875;28;19962;-79
2022/06/11 01:22:52;;;;;;;;;;;;;;;32.59;25.58;98659.03;5039946;28;19916;-80
2022/06/11 01:25:18;;;;;;;;;;;;;;;32.50;26.18;98656.22;5036143;28;19925;-78
2022/06/11 01:27:50;;;;;;;;;;;;;;;32.78;25.21;98654.06;5021182;28;19963;-77
2022/06/11 01:30:22;;;;;;;;;;;;;;;32.84;25.79;98649.28;5036812;28;19970;-77
2022/06/11 01:32:56;;;;;;;;;;;;;;;32.80;25.69;98650.72;5033182;28;19924;-78
2022/06/11 01:35:28;;;;;;;;;;;;;;;32.97;25.27;98658.41;5032313;28;20347;-77
2022/06/11 01:38:03;;;;;;;;;;;;;;;33.06;25.72;98654.75;5041088;28;19913;-77
2022/06/11 01:40:42;;;;;;;;;;;;;;;33.26;25.51;98652.88;5036871;28;19925;-78
2022/06/11 01:43:18;;;;;;;;;;;;;;;33.28;25.39;98658.88;5031632;28;19924;-78
2022/06/11 01:45:44;;;;;;;;;;;;;;;33.18;25.09;98659.44;5032451;28;19925;-77
2022/06/11 01:48:15;;;;;;;;;;;;;;;32.79;25.60;98655.66;5035929;28;19939;-78
2022/06/11 01:50:43;;;;;;;;;;;;;;;32.53;26.28;98660.94;5034436;28;19921;-77
2022/06/11 01:53:25;;;;;;;;;;;;;;;32.62;26.15;98668.66;5032387;28;19925;-78
2022/06/11 01:56:07;;;;;;;;;;;;;;;32.66;26.20;98663.59;5038238;28;19921;-78
2022/06/11 01:58:50;;;;;;;;;;;;;;;32.84;25.89;98657.81;5020501;28;19944;-78
2022/06/11 02:01:22;;;;;;;;;;;;;;;33.10;25.65;98661.03;5036777;28;19925;-78
2022/06/11 02:04:02;;;;;;;;;;;;;;;33.06;25.99;98657.59;5033463;28;19924;-78
2022/06/11 02:06:39;;;;;;;;;;;;;;;33.09;26.04;98651.75;5036931;28;19924;-78
2022/06/11 02:09:24;;;;;;;;;;;;;;;33.15;25.43;98661.19;5037124;28;20054;-78
2022/06/11 02:11:53;;;;;;;;;;;;;;;33.33;25.23;98660.28;5041700;28;19921;-78
2022/06/11 02:14:39;;;;;;;;;;;;;;;33.22;25.61;98662.88;5041434;28;19944;-78
2022/06/11 02:17:08;;;;;;;;;;;;;;;33.37;25.23;98658.81;5034850;28;19924;-78
2022/06/11 02:19:37;;;;;;;;;;;;;;;33.12;25.77;98664.97;5032950;28;19923;-78
2022/06/11 02:22:09;;;;;;;;;;;;;;;32.96;25.63;98667.41;5032833;28;19921;-78
2022/06/11 02:24:38;;;;;;;;;;;;;;;32.99;25.49;98666.44;5032405;28;19920;-78
2022/06/11 02:27:09;;;;;;;;;;;;;;;33.18;25.43;98673.66;5032813;28;19916;-78
2022/06/11 02:29:35;;;;;;;;;;;;;;;33.36;25.15;98677.19;5037393;28;19971;-78
2022/06/11 02:32:06;;;;;;;;;;;;;;;33.38;25.59;98676.69;5032177;28;19925;-78
2022/06/11 02:34:36;;;;;;;;;;;;;;;33.18;26.01;98671.59;5031229;28;19924;-78
2022/06/11 02:37:09;;;;;;;;;;;;;;;33.08;26.16;98675.75;5036621;28;20033;-78
2022/06/11 02:39:37;;;;;;;;;;;;;;;33.19;25.71;98678.84;5033408;28;19921;-79
2022/06/11 02:42:05;;;;;;;;;;;;;;;33.38;25.40;98686.03;5034448;28;19955;-78
2022/06/11 02:44:31;;;;;;;;;;;;;;;33.46;25.25;98691.38;5033811;28;19940;-78
2022/06/11 02:46:57;;;;;;;;;;;;;;;33.49;25.25;98685.50;5034450;28;20040;-78
2022/06/11 02:49:28;;;;;;;;;;;;;;;33.28;25.67;98693.03;5045550;28;19963;-80
2022/06/11 02:51:56;;;;;;;;;;;;;;;33.40;25.50;98688.38;5035629;28;19932;-80
2022/06/11 02:54:25;;;;;;;;;;;;;;;33.61;25.15;98693.03;5039821;28;19928;-79
2022/06/11 02:56:53;;;;;;;;;;;;;;;33.64;25.20;98700.59;5034413;28;19912;-80
2022/06/11 02:59:20;;;;;;;;;;;;;;;33.58;25.22;98687.53;5040219;28;19924;-77
2022/06/11 03:01:47;;;;;;;;;;;;;;;33.53;25.31;98688.19;5032187;28;19924;-78
2022/06/11 03:04:13;;;;;;;;;;;;;;;33.60;25.26;98687.81;5035447;28;19994;-78
2022/06/11 03:06:42;;;;;;;;;;;;;;;33.70;25.33;98689.34;5037041;28;20011;-78
2022/06/11 03:09:10;;;;;;;;;;;;;;;33.82;25.04;98686.22;5036739;28;19951;-78
2022/06/11 03:11:36;;;;;;;;;;;;;;;33.90;24.53;98687.44;5037969;28;20368;-78
2022/06/11 03:14:02;;;;;;;;;;;;;;;33.65;24.99;98690.00;5040346;28;19940;-78
2022/06/11 03:16:28;;;;;;;;;;;;;;;33.64;24.56;98688.41;5033695;28;19917;-78
2022/06/11 03:18:55;;;;;;;;;;;;;;;33.63;24.61;98686.88;5046356;28;19924;-78
2022/06/11 03:21:20;;;;;;;;;;;;;;;33.33;25.08;98686.69;5036229;28;20007;-78
2022/06/11 03:23:47;;;;;;;;;;;;;;;33.10;25.59;98683.81;5034183;28;19936;-77
2022/06/11 03:26:13;;;;;;;;;;;;;;;33.36;25.22;98682.88;5035949;28;19917;-80
2022/06/11 03:28:39;;;;;;;;;;;;;;;33.56;24.91;98688.00;5033166;28;19920;-78
2022/06/11 03:31:06;;;;;;;;;;;;;;;33.64;25.26;98685.56;5025940;28;19925;-78
2022/06/11 03:33:33;;;;;;;;;;;;;;;33.55;25.10;98682.78;5032762;28;21402;-80
2022/06/11 03:36:00;;;;;;;;;;;;;;;33.74;25.29;98675.69;5036066;28;20319;-78
2022/06/11 03:38:26;;;;;;;;;;;;;;;33.95;25.16;98688.81;5044045;28;19917;-78
2022/06/11 03:40:52;;;;;;;;;;;;;;;33.55;25.15;98689.28;5039267;28;19944;-78
2022/06/11 03:43:18;;;;;;;;;;;;;;;33.37;25.71;98683.69;5038326;28;19936;-78
2022/06/11 03:45:44;;;;;;;;;;;;;;;33.56;25.80;98685.13;5034988;28;19924;-78
2022/06/11 03:48:11;;;;;;;;;;;;;;;33.74;25.71;98685.03;5031966;28;19978;-78
2022/06/11 03:50:39;;;;;;;;;;;;;;;33.93;25.91;98691.38;5031719;28;19948;-78
2022/06/11 03:53:06;;;;;;;;;;;;;;;34.24;25.43;98688.13;5033005;28;20011;-78
2022/06/11 03:55:32;;;;;;;;;;;;;;;34.39;25.30;98684.00;5029631;28;19925;-78
2022/06/11 03:57:58;;;;;;;;;;;;;;;34.34;24.97;98681.03;5035423;28;19924;-78
2022/06/11 04:03:12;;;;;;;;;;;;;;;34.21;26.14;98686.25;5035415;28;20047;-78
2022/06/11 04:05:39;;;;;;;;;;;;;;;34.40;25.57;98685.56;5031692;28;20368;-78
2022/06/11 04:08:05;;;;;;;;;;;;;;;34.73;25.56;98689.03;5022066;28;19925;-78
2022/06/11 04:10:33;;;;;;;;;;;;;;;34.80;25.15;98689.94;5021734;28;20371;-78
2022/06/11 04:12:59;;;;;;;;;;;;;;;34.85;25.66;98695.72;5039677;28;20280;-78
2022/06/11 04:15:25;;;;;;;;;;;;;;;35.09;26.11;98689.91;5037033;28;19925;-78
2022/06/11 04:17:52;;;;;;;;;;;;;;;35.28;25.43;98688.38;5035550;28;19974;-78
2022/06/11 04:20:18;;;;;;;;;;;;;;;34.64;25.04;98688.34;5038294;28;20317;-78
2022/06/11 04:22:44;;;;;;;;;;;;;;;34.23;26.25;98695.88;5047501;28;20470;-78
2022/06/11 04:25:15;;;;;;;;;;;;;;;34.03;26.01;98690.03;5040333;28;19912;-78
2022/06/11 04:27:41;;;;;;;;;;;;;;;33.85;26.13;98690.16;5036940;28;20011;-78
2022/06/11 04:30:09;;;;;;;;;;;;;;;33.67;26.89;98693.94;5042487;28;20055;-78
2022/06/11 04:32:35;;;;;;;;;;;;;;;33.69;26.78;98688.56;5019542;28;19917;-78
2022/06/11 04:35:01;;;;;;;;;;;;;;;33.74;27.00;98681.41;5038774;28;19947;-78
2022/06/11 04:37:28;;;;;;;;;;;;;;;33.86;27.53;98680.34;5040669;28;20007;-78
2022/06/11 04:39:55;;;;;;;;;;;;;;;34.51;28.02;98691.50;5036520;28;20035;-78
2022/06/11 04:42:22;;;;;;;;;;;;;;;35.27;26.82;98684.75;5036613;28;19929;-78
2022/06/11 04:44:48;;;;;;;;;;;;;;;35.85;26.16;98688.69;5038287;28;20360;-78
2022/06/11 04:47:17;;;;;;;;;;;;;;;36.25;25.75;98682.13;5036463;28;19925;-78
2022/06/11 04:49:44;;;;;;;;;;;;;;;36.55;25.50;98684.28;5038236;28;19923;-78
2022/06/11 04:52:10;;;;;;;;;;;;;;;36.81;24.73;98687.13;5040673;28;19982;-79
2022/06/11 04:54:36;;;;;;;;;;;;;;;36.99;24.79;98689.66;5038013;28;19916;-79
2022/06/11 04:57:03;;;;;;;;;;;;;;;37.22;24.40;98679.94;5036696;28;19920;-79
2022/06/11 04:59:31;;;;;;;;;;;;;;;37.28;24.17;98686.47;5039384;28;19929;-79
2022/06/11 05:01:57;;;;;;;;;;;;;;;37.33;24.41;98688.59;5035244;28;20277;-79
2022/06/11 05:04:23;;;;;;;;;;;;;;;37.46;24.02;98696.75;5036313;28;19916;-79
2022/06/11 05:06:50;;;;;;;;;;;;;;;37.61;24.27;98690.84;5040864;28;20341;-78
2022/06/11 05:09:17;;;;;;;;;;;;;;;37.73;23.90;98693.25;5037275;28;20623;-79
2022/06/11 05:11:43;;;;;;;;;;;;;;;37.79;23.41;98693.28;5038442;28;19920;-79
2022/06/11 05:14:09;;;;;;;;;;;;;;;37.91;23.02;98689.97;5037317;28;19935;-79
2022/06/11 05:16:37;;;;;;;;;;;;;;;38.00;23.35;98689.75;5039269;28;19921;-79
2022/06/11 05:19:04;;;;;;;;;;;;;;;38.04;22.72;98689.50;5039135;28;20350;-79
2022/06/11 05:21:30;;;;;;;;;;;;;;;38.19;23.34;98695.81;5036527;28;20453;-79
2022/06/11 05:23:56;;;;;;;;;;;;;;;38.31;22.75;98690.91;5040894;28;19928;-77
2022/06/11 05:26:25;;;;;;;;;;;;;;;38.23;20.74;98692.69;5035700;28;19917;-77
2022/06/11 05:28:51;;;;;;;;;;;;;;;37.65;21.60;98691.38;5039493;28;19932;-77
2022/06/11 05:31:17;;;;;;;;;;;;;;;37.38;21.91;98695.69;5036694;28;20265;-77
2022/06/11 05:33:43;;;;;;;;;;;;;;;37.35;21.11;98697.44;5036005;28;19921;-78
2022/06/11 05:36:11;;;;;;;;;;;;;;;37.01;20.97;98692.78;5034824;28;19970;-77
2022/06/11 05:38:37;;;;;;;;;;;;;;;36.99;21.28;98706.84;5043229;28;19928;-78
2022/06/11 05:41:03;;;;;;;;;;;;;;;37.25;21.19;98709.63;5046952;28;20319;-77
2022/06/11 05:43:29;;;;;;;;;;;;;;;36.71;21.49;98700.81;5034986;28;19920;-77
2022/06/11 05:46:01;;;;;;;;;;;;;;;35.93;21.87;98699.16;5046473;28;19928;-77
2022/06/11 05:48:29;;;;;;;;;;;;;;;34.08;24.07;98707.25;5043308;28;20368;-78
2022/06/11 05:50:57;;;;;;;;;;;;;;;33.62;24.68;98713.75;5052513;28;20524;-81
2022/06/11 05:53:24;;;;;;;;;;;;;;;34.39;25.22;98721.06;5047305;28;19921;-80
2022/06/11 05:55:51;;;;;;;;;;;;;;;34.26;24.55;98714.84;5047036;28;19939;-80
2022/06/11 05:58:20;;;;;;;;;;;;;;;34.70;23.79;98718.53;5047981;28;19952;-79
2022/06/11 06:00:46;;;;;;;;;;;;;;;34.63;24.30;98716.13;5041241;28;20342;-79
2022/06/11 06:03:12;;;;;;;;;;;;;;;35.54;23.39;98715.03;5049095;28;19927;-79
2022/06/11 06:05:39;;;;;;;;;;;;;;;35.00;23.55;98715.69;5024276;28;20393;-80
2022/06/11 06:08:06;;;;;;;;;;;;;;;34.69;24.35;98722.69;5047367;28;19921;-80
2022/06/11 06:10:33;;;;;;;;;;;;;;;35.16;23.76;98723.75;5041227;28;19940;-80
2022/06/11 06:12:59;;;;;;;;;;;;;;;35.00;23.34;98721.41;5042025;28;19916;-79
2022/06/11 06:15:26;;;;;;;;;;;;;;;33.36;26.08;98727.66;5042738;28;20382;-78
2022/06/11 06:17:52;;;;;;;;;;;;;;;34.38;26.85;98732.97;5045447;28;20040;-78
2022/06/11 06:20:19;;;;;;;;;;;;;;;34.06;24.86;98729.75;5047340;28;19913;-78
2022/06/11 06:22:46;;;;;;;;;;;;;;;35.63;22.67;98719.81;5044280;28;19928;-78
2022/06/11 06:25:13;;;;;;;;;;;;;;;34.57;23.66;98738.03;5042936;28;19943;-79
2022/06/11 06:27:39;;;;;;;;;;;;;;;34.95;23.67;98728.59;5044317;28;19917;-79
2022/06/11 06:30:05;;;;;;;;;;;;;;;34.08;23.16;98735.75;5045222;28;20421;-78
2022/06/11 06:32:32;;;;;;;;;;;;;;;33.46;24.90;98731.22;5042776;28;20058;-79
2022/06/11 06:34:58;;;;;;;;;;;;;;;32.55;26.70;98731.56;5040574;28;19924;-79
2022/06/11 06:37:24;;;;;;;;;;;;;;;32.92;26.56;98738.72;5040334;28;19916;-79
2022/06/11 06:39:50;;;;;;;;;;;;;;;32.63;26.00;98727.09;5045911;28;19956;-79
2022/06/11 06:42:17;;;;;;;;;;;;;;;33.75;24.12;98734.25;5040960;28;20282;-79
2022/06/11 06:44:43;;;;;;;;;;;;;;;34.22;23.79;98733.41;5041526;28;19932;-79
2022/06/11 06:47:09;;;;;;;;;;;;;;;33.99;24.06;98738.66;5044213;28;19916;-79
2022/06/11 06:49:35;;;;;;;;;;;;;;;32.62;26.14;98734.06;5043862;28;19917;-79
2022/06/11 06:52:01;;;;;;;;;;;;;;;33.83;24.02;98729.75;5042097;28;19924;-78
2022/06/11 06:54:27;;;;;;;;;;;;;;;35.04;22.85;98724.84;5040796;28;19917;-79
2022/06/11 06:56:53;;;;;;;;;;;;;;;35.25;23.55;98732.19;5040309;28;20011;-79
2022/06/11 06:59:19;;;;;;;;;;;;;;;35.15;22.81;98730.75;5028018;28;20419;-78
2022/06/11 07:01:45;;;;;;;;;;;;;;;33.97;26.24;98732.66;5046445;28;19912;-78
2022/06/11 07:04:11;;;;;;;;;;;;;;;32.89;26.43;98733.97;5041562;28;19917;-79
2022/06/11 07:06:38;;;;;;;;;;;;;;;33.03;25.33;98726.84;5043160;28;20023;-79
2022/06/11 07:09:04;;;;;;;;;;;;;;;34.03;25.69;98729.94;5046923;28;19916;-78
2022/06/11 07:11:30;;;;;;;;;;;;;;;35.27;22.74;98724.72;5044987;28;19925;-79
2022/06/11 07:13:56;;;;;;;;;;;;;;;35.78;21.39;98723.41;5044372;28;19928;-80
2022/06/11 07:16:26;;;;;;;;;;;;;;;35.19;22.00;98734.19;5047785;28;19932;-80
2022/06/11 07:18:56;;;;;;;;;;;;;;;34.52;23.95;98735.88;5043086;28;19917;-79
2022/06/11 07:21:26;;;;;;;;;;;;;;;32.61;25.51;98730.44;5040568;28;19916;-80
2022/06/11 07:23:54;;;;;;;;;;;;;;;34.14;23.51;98730.19;5041351;28;19917;-80
2022/06/11 07:26:22;;;;;;;;;;;;;;;35.85;21.72;98725.84;5043576;28;19968;-80
2022/06/11 07:28:52;;;;;;;;;;;;;;;36.34;20.44;98722.03;5044006;28;19995;-80
2022/06/11 07:31:18;;;;;;;;;;;;;;;36.83;19.93;98736.06;5043351;28;19917;-80
2022/06/11 07:33:44;;;;;;;;;;;;;;;36.78;20.91;98736.03;5042749;28;19917;-80
2022/06/11 07:36:12;;;;;;;;;;;;;;;34.41;23.24;98734.84;5043047;28;19917;-81
2022/06/11 07:38:38;;;;;;;;;;;;;;;32.73;25.09;98743.66;5043077;28;19916;-80
2022/06/11 07:41:04;;;;;;;;;;;;;;;31.35;26.90;98737.53;5041667;28;19917;-81
2022/06/11 07:43:31;;;;;;;;;;;;;;;31.60;26.10;98744.25;5044793;28;20288;-80
2022/06/11 07:45:57;;;;;;;;;;;;;;;31.39;27.27;98738.16;5048299;28;20373;-81
2022/06/11 07:48:23;;;;;;;;;;;;;;;31.37;26.68;98751.25;5044888;28;19923;-82
2022/06/11 07:50:50;;;;;;;;;;;;;;;31.62;25.63;98739.69;5035247;28;19978;-80
2022/06/11 07:53:18;;;;;;;;;;;;;;;31.56;26.63;98743.59;5032367;28;19924;-80
2022/06/11 07:55:45;;;;;;;;;;;;;;;33.12;24.43;98735.34;5013240;28;19917;-80
2022/06/11 07:58:12;;;;;;;;;;;;;;;33.36;22.99;98739.03;5033329;28;19970;-79
2022/06/11 08:00:39;;;;;;;;;;;;;;;33.62;23.42;98745.09;5035951;28;19913;-79
2022/06/11 08:03:06;;;;;;;;;;;;;;;32.89;24.36;98741.72;5030274;28;19925;-80
2022/06/11 08:05:33;;;;;;;;;;;;;;;32.84;25.83;98736.69;5027314;28;19917;-80
2022/06/11 08:08:00;;;;;;;;;;;;;;;33.13;23.51;98740.56;5026352;28;19917;-81
2022/06/11 08:10:27;;;;;;;;;;;;;;;34.48;21.90;98743.81;5030976;28;19928;-80
2022/06/11 08:12:53;;;;;;;;;;;;;;;32.56;24.24;98739.59;5025214;28;19923;-81
2022/06/11 08:15:19;;;;;;;;;;;;;;;32.20;24.92;98739.63;5027282;28;19917;-81
2022/06/11 08:17:46;;;;;;;;;;;;;;;33.06;23.91;98732.38;5026453;28;19935;-81
2022/06/11 08:20:14;;;;;;;;;;;;;;;33.41;24.49;98736.31;5025272;28;19921;-80
2022/06/11 08:22:40;;;;;;;;;;;;;;;32.44;24.52;98736.91;5027682;28;20373;-79
2022/06/11 08:25:06;;;;;;;;;;;;;;;33.18;25.16;98728.53;5027423;28;19928;-80
2022/06/11 08:27:33;;;;;;;;;;;;;;;31.65;26.57;98740.81;5030795;28;19917;-81
2022/06/11 08:29:59;;;;;;;;;;;;;;;32.18;24.68;98736.47;5028086;28;19936;-81
2022/06/11 08:32:25;;;;;;;;;;;;;;;33.26;24.70;98729.75;5029824;28;19925;-80
2022/06/11 08:34:51;;;;;;;;;;;;;;;33.46;23.65;98725.53;5028136;28;20280;-81
2022/06/11 08:37:18;;;;;;;;;;;;;;;34.18;22.85;98730.78;5027449;28;19962;-80
2022/06/11 08:39:44;;;;;;;;;;;;;;;35.56;20.24;98715.31;5024545;28;19917;-81
2022/06/11 08:42:28;;;;;;;;;;;;;;;33.30;22.78;98729.59;5022875;28;20366;-81
2022/06/11 08:44:54;;;;;;;;;;;;;;;31.89;24.11;98724.72;5026508;28;20016;-81
2022/06/11 08:47:21;;;;;;;;;;;;;;;31.75;24.54;98723.31;5024314;28;19917;-82
2022/06/11 08:49:48;;;;;;;;;;;;;;;32.08;24.73;98720.66;5023813;28;19932;-82
2022/06/11 08:52:23;;;;;;;;;;;;;;;32.56;23.46;98716.03;5043669;28;19923;-82
2022/06/11 08:54:50;;;;;;;;;;;;;;;33.13;21.95;98709.25;5040859;28;19939;-81
2022/06/11 08:57:16;;;;;;;;;;;;;;;33.67;22.42;98704.56;5047013;28;19944;-81
2022/06/11 09:00:01;;;;;;;;;;;;;;;34.08;22.51;98715.00;5046028;28;19921;-80
2022/06/11 09:02:45;;;;;;;;;;;;;;;33.15;23.88;98712.41;5047594;28;19917;-81
2022/06/11 09:05:11;;;;;;;;;;;;;;;32.21;24.65;98709.16;5045751;28;19917;-80
2022/06/11 09:07:51;;;;;;;;;;;;;;;32.14;25.18;98707.38;5046062;28;19916;-80
2022/06/11 09:10:36;;;;;;;;;;;;;;;31.67;24.14;98704.97;5045966;28;19916;-81
2022/06/11 09:13:11;;;;;;;;;;;;;;;33.15;22.49;98697.38;5044383;28;19975;-82
2022/06/11 09:15:40;;;;;;;;;;;;;;;33.74;22.01;98698.50;5048005;28;19962;-80
2022/06/11 09:18:16;;;;;;;;;;;;;;;34.74;21.17;98686.97;5051039;28;19925;-80
2022/06/11 09:20:52;;;;;;;;;;;;;;;35.88;20.89;98684.81;5045621;28;19926;-80
2022/06/11 09:23:18;;;;;;;;;;;;;;;36.06;19.28;98682.44;5043672;28;19916;-80
2022/06/11 09:25:56;;;;;;;;;;;;;;;35.98;19.27;98691.97;5045844;28;19931;-80
2022/06/11 09:28:25;;;;;;;;;;;;;;;35.73;19.34;98690.59;5041730;28;20271;-80
2022/06/11 09:30:59;;;;;;;;;;;;;;;35.01;20.13;98686.63;5042206;28;19925;-80
2022/06/11 09:33:32;;;;;;;;;;;;;;;34.82;21.55;98687.38;5042331;28;20518;-80
2022/06/11 09:36:03;;;;;;;;;;;;;;;34.78;21.14;98681.06;5040888;28;19931;-80
2022/06/11 09:38:35;;;;;;;;;;;;;;;34.53;22.24;98683.25;5042743;28;19990;-80
2022/06/11 09:41:09;;;;;;;;;;;;;;;33.62;23.21;98676.72;5044637;28;19916;-81
2022/06/11 09:43:38;;;;;;;;;;;;;;;33.83;24.35;98682.13;5038789;28;19928;-81
2022/06/11 09:46:13;;;;;;;;;;;;;;;34.23;22.06;98680.84;5047890;28;19916;-80
2022/06/11 09:48:42;;;;;;;;;;;;;;;32.91;22.81;98685.91;5025149;28;20387;-79
2022/06/11 09:51:13;;;;;;;;;;;;;;;34.13;21.64;98674.44;5046573;28;19931;-79
2022/06/11 09:53:54;;;;;;;;;;;;;;;34.75;20.92;98669.34;5041152;28;20054;-79
2022/06/11 09:56:37;;;;;;;;;;;;;;;34.46;22.00;98665.72;5044789;28;19975;-79
2022/06/11 09:59:15;;;;;;;;;;;;;;;34.44;20.22;98663.38;5045060;28;20426;-78
2022/06/11 10:01:54;;;;;;;;;;;;;;;34.54;20.36;98670.56;5030466;28;19959;-78
2022/06/11 10:04:24;;;;;;;;;;;;;;;35.87;19.69;98663.25;5039196;28;19921;-79
2022/06/11 10:06:52;;;;;;;;;;;;;;;36.20;20.59;98665.72;5044150;28;19967;-78
2022/06/11 10:09:21;;;;;;;;;;;;;;;36.26;18.88;98667.34;5041280;28;20357;-78
2022/06/11 10:11:53;;;;;;;;;;;;;;;35.94;18.81;98672.13;5045249;28;19930;-78
2022/06/11 10:14:30;;;;;;;;;;;;;;;35.91;19.38;98661.72;5043895;28;19929;-78
2022/06/11 10:17:17;;;;;;;;;;;;;;;36.29;18.03;98668.41;5045124;28;19953;-78
2022/06/11 10:19:46;;;;;;;;;;;;;;;35.34;20.60;98657.81;5036043;28;19962;-78
2022/06/11 10:22:17;;;;;;;;;;;;;;;35.86;19.63;98665.31;5039354;28;20003;-78
2022/06/11 10:25:06;;;;;;;;;;;;;;;33.72;21.21;98666.84;5043669;28;20391;-78
2022/06/11 10:27:35;;;;;;;;;;;;;;;34.19;19.14;98674.56;5036326;28;19932;-78
2022/06/11 10:30:07;;;;;;;;;;;;;;;35.83;18.61;98662.66;5043674;28;19916;-79
2022/06/11 10:32:39;;;;;;;;;;;;;;;36.49;17.24;98654.06;5040937;28;19983;-78
2022/06/11 10:35:12;;;;;;;;;;;;;;;36.37;17.59;98647.41;5041976;28;20015;-78
2022/06/11 10:38:07;;;;;;;;;;;;;;;36.11;17.06;98654.44;5039947;28;20046;-77
2022/06/11 10:40:35;;;;;;;;;;;;;;;35.72;18.10;98645.38;5035312;28;21938;-78
2022/06/11 10:43:20;;;;;;;;;;;;;;;35.83;18.33;98656.94;5036112;28;20327;-78
2022/06/11 10:45:46;;;;;;;;;;;;;;;35.88;18.70;98659.06;5041373;28;19916;-78
2022/06/11 10:48:16;;;;;;;;;;;;;;;35.46;19.37;98653.06;5028918;28;19991;-78
2022/06/11 10:50:43;;;;;;;;;;;;;;;33.69;20.86;98656.41;5038199;28;19924;-78
2022/06/11 10:53:12;;;;;;;;;;;;;;;32.55;21.21;98661.25;5041381;28;19917;-79
2022/06/11 10:55:40;;;;;;;;;;;;;;;33.06;21.70;98661.22;5039050;28;20174;-78
2022/06/11 10:58:29;;;;;;;;;;;;;;;33.14;20.11;98653.13;5039684;28;20017;-78
2022/06/11 11:01:01;;;;;;;;;;;;;;;34.53;20.16;98646.19;5032386;28;19913;-77
2022/06/11 11:03:46;;;;;;;;;;;;;;;33.11;20.74;98649.19;5041119;28;19924;-78
2022/06/11 11:06:33;;;;;;;;;;;;;;;33.09;20.33;98660.28;5045687;28;19913;-78
2022/06/11 11:09:03;;;;;;;;;;;;;;;32.94;20.12;98650.81;5024583;28;19917;-79
2022/06/11 11:11:40;;;;;;;;;;;;;;;33.08;21.31;98655.84;5043120;28;19916;-78
2022/06/11 11:14:07;;;;;;;;;;;;;;;34.03;19.97;98655.84;5046505;28;19924;-77
2022/06/11 11:16:36;;;;;;;;;;;;;;;33.28;20.15;98661.72;5042917;28;19916;-78
2022/06/11 11:19:21;;;;;;;;;;;;;;;32.79;22.73;98664.19;5043952;28;19924;-78
2022/06/11 11:21:50;;;;;;;;;;;;;;;34.13;19.94;98651.63;5039916;28;19935;-78
2022/06/11 11:24:18;;;;;;;;;;;;;;;35.81;17.73;98648.06;5040176;28;20403;-77
2022/06/11 11:26:53;;;;;;;;;;;;;;;36.34;19.89;98650.53;5039290;28;19917;-78
2022/06/11 11:29:24;;;;;;;;;;;;;;;34.73;18.85;98651.94;5041162;28;19921;-80
2022/06/11 11:31:53;;;;;;;;;;;;;;;35.11;19.50;98642.44;5043098;28;20019;-79
2022/06/11 11:34:27;;;;;;;;;;;;;;;35.19;19.57;98637.91;5042732;28;20004;-79
2022/06/11 11:36:58;;;;;;;;;;;;;;;33.77;19.29;98660.50;5044049;28;19944;-80
2022/06/11 11:39:26;;;;;;;;;;;;;;;33.51;21.62;98651.63;5044192;28;20368;-80
2022/06/11 11:42:04;;;;;;;;;;;;;;;33.76;20.09;98654.00;5041814;28;19924;-80
2022/06/11 11:44:35;;;;;;;;;;;;;;;35.00;17.46;98636.56;5044619;28;20011;-80
2022/06/11 11:47:03;;;;;;;;;;;;;;;36.48;16.93;98633.25;5043502;28;20368;-79
2022/06/11 11:49:31;;;;;;;;;;;;;;;37.08;17.77;98637.91;5043404;28;20003;-78
2022/06/11 11:52:26;;;;;;;;;;;;;;;37.18;17.07;98635.63;5040533;28;20008;-78
2022/06/11 11:54:59;;;;;;;;;;;;;;;35.04;18.18;98642.06;5035544;28;19940;-80
2022/06/11 11:57:28;;;;;;;;;;;;;;;35.29;18.34;98639.34;5044695;28;20431;-79
2022/06/11 12:00:00;;;;;;;;;;;;;;;33.98;18.29;98637.31;5021630;28;19927;-80
2022/06/11 12:02:31;;;;;;;;;;;;;;;32.79;19.88;98634.94;5037730;28;20675;-81
2022/06/11 12:04:59;;;;;;;;;;;;;;;32.51;21.28;98639.94;5038035;28;20299;-80
2022/06/11 12:07:31;;;;;;;;;;;;;;;33.15;19.92;98640.47;5038811;28;19920;-82
2022/06/11 12:10:02;;;;;;;;;;;;;;;35.47;17.66;98635.44;5044913;28;19916;-81
2022/06/11 12:12:30;;;;;;;;;;;;;;;34.64;19.09;98632.09;5042145;28;20016;-83
2022/06/11 12:14:58;;;;;;;;;;;;;;;33.60;19.16;98639.41;5044208;28;19952;-81
2022/06/11 12:17:56;;;;;;;;;;;;;;;34.60;18.22;98630.72;5038497;28;20892;-81
2022/06/11 12:20:37;;;;;;;;;;;;;;;35.43;17.63;98623.41;4991373;28;19917;-78
2022/06/11 12:23:22;;;;;;;;;;;;;;;36.29;16.85;98628.38;5046265;28;19969;-79
2022/06/11 12:26:07;;;;;;;;;;;;;;;35.56;17.18;98625.94;5045821;28;19920;-79
2022/06/11 12:28:38;;;;;;;;;;;;;;;36.37;17.41;98632.31;5040460;28;19924;-79
2022/06/11 12:31:04;;;;;;;;;;;;;;;37.01;17.27;98620.41;5042396;28;19931;-79
2022/06/11 12:33:30;;;;;;;;;;;;;;;37.06;17.87;98629.03;5042290;28;20447;-81
2022/06/11 12:36:10;;;;;;;;;;;;;;;37.84;16.79;98636.00;5045351;28;19925;-80
2022/06/11 12:38:53;;;;;;;;;;;;;;;37.76;16.73;98631.25;5045709;28;19932;-80
2022/06/11 12:41:37;;;;;;;;;;;;;;;37.24;17.00;98630.72;5027470;28;20301;-80
2022/06/11 12:44:03;;;;;;;;;;;;;;;35.61;18.54;98640.31;5043940;28;20351;-80
2022/06/11 12:46:35;;;;;;;;;;;;;;;34.35;19.51;98632.09;5042161;28;19960;-80
2022/06/11 12:49:16;;;;;;;;;;;;;;;33.21;21.47;98647.84;5044883;28;20054;-80
2022/06/11 12:51:45;;;;;;;;;;;;;;;32.98;22.08;98642.13;5042394;28;20407;-80
2022/06/11 12:54:17;;;;;;;;;;;;;;;33.54;21.01;98642.13;5041503;28;20292;-81
2022/06/11 12:57:02;;;;;;;;;;;;;;;35.09;19.28;98633.59;5023583;28;20378;-80
2022/06/11 12:59:43;;;;;;;;;;;;;;;35.83;18.48;98628.34;5039378;28;20430;-80
2022/06/11 13:02:11;;;;;;;;;;;;;;;35.32;19.80;98628.97;5039595;28;19920;-79
2022/06/11 13:05:04;;;;;;;;;;;;;;;35.91;18.71;98623.78;5040863;28;20322;-79